Hlavní strana
METAR-TAF:

METAR-TAF

Letiště :

Bardufoss, Norsko

zeměpisná šířka: 69-04N, zeměpisná délka: 018-32E, výška: 7 m

Aktuální stav počasí

Zpráva byla vytvořena před 14 minutami, v 00:20 UTC
Východojihovýchodní vítr 9 kt
Teplota 7°C
Vlhkost vzduchu 76%
Tlak 998 hPa
Viditelnost 10 km a více
slabý déšť

METAR: ENDU 210020Z AUTO 12009KT 9999 -RA BKN037/// OVC047/// 07/03 Q0998 RMK WIND 1100FT 17013G25KT WIND 2200FT 16026KT

Čas: 02:34 (00:34 UTC)

Předpověď počasí

Předpověď platná od 21 v 00 UTC do 21 v 24 UTC
Jihojihozápadní vítr 5 kt
Viditelnost 10 km a více
Skoro jasno ve výšce 2000 ft
Oblačno až skoro zataženo ve výšce 3000 ft
slabý déšť
Změna
od 21 v 00 UTC do 21 v 03 UTC
Jihozápadní vítr 15 kt
Pravděpodobnost 40% :
Dočasný
od 21 v 06 UTC do 21 v 18 UTC
Jihozápadní vítr 18 kt s nárazy do 28 kt
Polojasno ve výšce 2000 ft, Cumulonimbus.
dešťové přeháňky, malé kroupy nebo krupky

TAF: ENDU 2100/2124 21005KT 9999 -RA FEW020 BKN030 BECMG 2100/2103 22015KT PROB40 TEMPO 2106/2118 22018G28KT SHRAGS SCT020CB

Stav a předpovědi počasí z více než 4 000 letišť (zprávy METAR a TAF).

Červené a žluté tečky na mapě představují dostupné meteorologické stanice.

Když kurzor umístíte na tečku, zobrazí se název stanice.

Pak kliknutím zobrazíte stav a předpověď počasí.

Chcete-li změnit mapu, kliknutím na zelené tlačítko se znaménkem +mapu přiblížíte, kliknutím na zelené tlačítko se znaménkem – mapu oddálíte a kliknutím na zelené šipky přejdete na sousední mapy.


METAR-TAF: